createdAt,value
2019-01-26T00:03:29.534Z,16.17
2019-01-26T00:09:34.156Z,17.47
2019-01-26T00:15:38.797Z,17.20
2019-01-26T00:21:43.684Z,17.03
2019-01-26T00:27:48.340Z,16.47
2019-01-26T00:33:53.050Z,14.67
2019-01-26T00:39:57.942Z,13.80
2019-01-26T00:46:02.708Z,13.30
2019-01-26T00:52:07.346Z,11.93
2019-01-26T00:58:12.042Z,11.73
2019-01-26T01:04:16.942Z,10.70
2019-01-26T01:10:22.085Z,12.10
2019-01-26T01:16:26.813Z,10.03
2019-01-26T01:22:31.452Z,11.30
2019-01-26T01:28:36.230Z,10.70
2019-01-26T01:34:41.195Z,10.33
2019-01-26T01:40:46.016Z,10.33
2019-01-26T01:46:50.639Z,9.47
2019-01-26T01:52:55.268Z,10.23
2019-01-26T01:58:59.967Z,9.73
2019-01-26T02:05:05.956Z,9.30
2019-01-26T02:11:11.329Z,10.53
2019-01-26T02:17:16.027Z,8.47
2019-01-26T02:23:20.803Z,7.10
2019-01-26T02:29:25.371Z,8.03
2019-01-26T02:35:30.537Z,8.87
2019-01-26T02:41:35.288Z,8.17
2019-01-26T02:47:40.218Z,8.60
2019-01-26T02:53:44.897Z,7.80
2019-01-26T02:59:50.021Z,9.07
2019-01-26T03:05:54.568Z,8.40
2019-01-26T03:11:59.218Z,8.10
2019-01-26T03:18:04.486Z,8.63
2019-01-26T03:24:09.078Z,8.00
2019-01-26T03:30:18.386Z,7.27
2019-01-26T03:36:22.924Z,7.73
2019-01-26T03:42:27.678Z,8.27
2019-01-26T03:48:32.367Z,7.60
2019-01-26T03:54:37.010Z,7.33
2019-01-26T04:00:42.037Z,7.30
2019-01-26T04:06:46.892Z,7.10
2019-01-26T04:12:51.447Z,7.03
2019-01-26T04:18:56.122Z,5.63
2019-01-26T04:25:00.798Z,6.40
2019-01-26T04:31:05.449Z,6.00
2019-01-26T04:37:10.126Z,6.67
2019-01-26T04:43:14.958Z,5.90
2019-01-26T04:49:19.569Z,6.00
2019-01-26T04:55:24.343Z,6.70
2019-01-26T05:01:28.984Z,6.13
2019-01-26T05:07:35.893Z,5.70
2019-01-26T05:13:41.012Z,6.80
2019-01-26T05:19:45.937Z,5.60
2019-01-26T05:25:50.585Z,6.30
2019-01-26T05:31:55.165Z,5.93
2019-01-26T05:37:59.808Z,7.63
2019-01-26T05:44:04.742Z,6.50
2019-01-26T05:50:16.860Z,7.13
2019-01-26T05:56:21.576Z,6.83
2019-01-26T06:02:26.574Z,6.73
2019-01-26T06:08:31.125Z,6.23
2019-01-26T06:14:38.038Z,6.83
2019-01-26T06:20:44.722Z,6.17
2019-01-26T06:26:49.267Z,5.80
2019-01-26T06:32:54.008Z,5.80
2019-01-26T06:38:58.734Z,6.60
2019-01-26T06:45:03.361Z,6.27
2019-01-26T06:51:08.011Z,7.37
2019-01-26T06:57:13.524Z,6.33
2019-01-26T07:03:18.214Z,5.07
2019-01-26T07:09:22.912Z,4.83
2019-01-26T07:15:28.505Z,5.20
2019-01-26T07:21:33.059Z,4.67
2019-01-26T07:27:37.606Z,4.20
2019-01-26T07:33:42.826Z,4.20
2019-01-26T07:39:47.525Z,4.20
2019-01-26T07:45:52.059Z,5.30
2019-01-26T07:51:56.873Z,4.60
2019-01-26T07:58:01.426Z,5.03
2019-01-26T08:04:06.109Z,5.23
2019-01-26T08:10:14.871Z,7.17
2019-01-26T08:16:19.486Z,4.50
2019-01-26T08:22:24.054Z,4.20
2019-01-26T08:28:28.653Z,4.93
2019-01-26T08:34:33.283Z,6.10
2019-01-26T08:40:37.976Z,5.00
2019-01-26T08:46:42.631Z,4.40
2019-01-26T08:52:47.295Z,3.80
2019-01-26T08:58:51.848Z,3.70
2019-01-26T09:04:57.369Z,4.30
2019-01-26T09:11:02.014Z,3.77
2019-01-26T09:17:06.633Z,3.40
2019-01-26T09:23:11.430Z,3.43
2019-01-26T09:29:16.031Z,3.30
2019-01-26T09:35:20.644Z,2.87
2019-01-26T09:41:25.255Z,3.27
2019-01-26T09:47:29.812Z,4.30
2019-01-26T09:53:34.444Z,4.60
2019-01-26T09:59:39.050Z,3.57
2019-01-26T10:05:43.667Z,3.50
2019-01-26T10:11:48.212Z,4.00
2019-01-26T10:17:53.133Z,3.70
2019-01-26T10:23:57.690Z,4.03
2019-01-26T10:30:02.249Z,3.20
2019-01-26T10:36:06.721Z,3.60
2019-01-26T10:42:14.312Z,3.30
2019-01-26T10:48:19.211Z,3.80
2019-01-26T10:54:23.910Z,3.53
2019-01-26T11:00:28.763Z,3.60
2019-01-26T11:06:33.318Z,4.23
2019-01-26T11:12:38.212Z,5.93
2019-01-26T11:18:42.898Z,4.90
2019-01-26T11:24:48.452Z,8.23
2019-01-26T11:30:53.348Z,3.93
2019-01-26T11:36:57.901Z,4.17
2019-01-26T11:43:02.443Z,4.63
2019-01-26T11:49:06.990Z,4.40
2019-01-26T11:55:13.343Z,4.50
2019-01-26T12:01:35.497Z,4.80
2019-01-26T12:07:43.146Z,5.03
2019-01-26T12:13:48.175Z,5.87
2019-01-26T12:19:52.812Z,6.97
2019-01-26T12:25:57.426Z,4.70
2019-01-26T12:32:02.058Z,5.13
2019-01-26T12:38:06.750Z,4.90
2019-01-26T12:44:11.483Z,4.20
2019-01-26T12:50:16.502Z,3.27
2019-01-26T12:56:21.249Z,4.10
2019-01-26T13:02:26.284Z,3.00
2019-01-26T13:08:31.003Z,5.93
2019-01-26T13:14:35.710Z,7.43
2019-01-26T13:20:41.590Z,3.30
2019-01-26T13:26:46.313Z,2.63
2019-01-26T13:32:51.102Z,2.40
2019-01-26T13:38:55.656Z,3.83
2019-01-26T13:45:00.202Z,2.33
2019-01-26T13:51:05.066Z,2.47
2019-01-26T13:57:09.859Z,2.77
2019-01-26T14:03:14.488Z,3.70
2019-01-26T14:09:19.379Z,3.60
2019-01-26T14:15:25.976Z,2.97
2019-01-26T14:21:30.532Z,2.13
2019-01-26T14:27:35.262Z,3.80
2019-01-26T14:33:40.460Z,3.70
2019-01-26T14:39:45.105Z,4.57
2019-01-26T14:45:49.893Z,3.87
2019-01-26T14:51:54.467Z,5.20
2019-01-26T14:57:59.118Z,5.67
2019-01-26T15:04:03.806Z,5.00
2019-01-26T15:10:12.935Z,6.47
2019-01-26T15:16:17.551Z,6.57
2019-01-26T15:22:22.585Z,7.93
2019-01-26T15:28:27.135Z,8.30
2019-01-26T15:34:31.692Z,7.90
2019-01-26T15:40:36.293Z,8.80
2019-01-26T15:46:40.901Z,7.37
2019-01-26T15:52:45.657Z,7.50
2019-01-26T15:58:50.220Z,8.10
2019-01-26T16:04:54.835Z,7.30
2019-01-26T16:10:59.685Z,6.90
2019-01-26T16:17:04.328Z,7.30
2019-01-26T16:23:09.744Z,6.93
2019-01-26T16:29:14.466Z,5.67
2019-01-26T16:35:19.787Z,7.03
2019-01-26T16:41:24.539Z,5.93
2019-01-26T16:47:29.086Z,7.17
2019-01-26T16:53:33.633Z,7.10
2019-01-26T16:59:38.439Z,5.83
2019-01-26T17:05:43.920Z,10.50
2019-01-26T17:11:48.483Z,7.23
2019-01-26T17:17:53.253Z,6.00
2019-01-26T17:24:00.067Z,7.27
2019-01-26T17:30:07.168Z,6.17
2019-01-26T17:36:12.128Z,7.90
2019-01-26T17:42:16.760Z,7.13
2019-01-26T17:48:21.343Z,10.60
2019-01-26T17:54:26.022Z,20.43
2019-01-26T18:00:35.452Z,9.87
2019-01-26T18:06:40.174Z,10.07
2019-01-26T18:12:44.982Z,9.57
2019-01-26T18:18:49.534Z,10.50
2019-01-26T18:24:54.159Z,9.37
2019-01-26T18:30:58.783Z,9.17
2019-01-26T18:37:03.483Z,9.00
2019-01-26T18:43:10.426Z,9.17
2019-01-26T18:49:15.100Z,7.97
2019-01-26T18:55:19.709Z,8.20
2019-01-26T19:01:24.926Z,7.00
2019-01-26T19:07:29.796Z,8.10
2019-01-26T19:13:34.693Z,10.07
2019-01-26T19:19:39.634Z,8.37
2019-01-26T19:25:44.292Z,6.93
2019-01-26T19:31:48.925Z,7.13
2019-01-26T19:37:53.671Z,7.27
2019-01-26T19:43:58.289Z,6.50
2019-01-26T19:50:02.922Z,6.70
2019-01-26T19:56:07.538Z,6.00
2019-01-26T20:02:12.436Z,6.33
2019-01-26T20:08:17.120Z,5.43
2019-01-26T20:14:21.769Z,6.10
2019-01-26T20:20:40.926Z,5.47
2019-01-26T20:26:45.742Z,5.53
2019-01-26T20:32:50.362Z,6.17
2019-01-26T20:38:55.046Z,5.80
2019-01-26T20:44:59.748Z,5.20
2019-01-26T20:51:04.369Z,4.40
2019-01-26T20:57:09.243Z,5.23
2019-01-26T21:03:13.930Z,5.40
2019-01-26T21:09:18.686Z,5.10
2019-01-26T21:15:23.309Z,5.13
2019-01-26T21:21:31.987Z,4.73
2019-01-26T21:27:34.196Z,5.07
2019-01-26T21:33:38.850Z,5.80
2019-01-26T21:39:45.353Z,4.67
2019-01-26T21:45:50.243Z,6.17
2019-01-26T21:51:54.771Z,5.57
2019-01-26T21:57:59.327Z,6.37
2019-01-26T22:04:03.946Z,5.30
2019-01-26T22:10:15.511Z,5.30
2019-01-26T22:16:20.303Z,6.23
2019-01-26T22:22:24.921Z,4.60
2019-01-26T22:28:31.222Z,6.23
2019-01-26T22:34:35.838Z,5.47
2019-01-26T22:40:40.689Z,5.00
2019-01-26T22:46:45.837Z,7.87
2019-01-26T22:52:54.145Z,5.80
2019-01-26T22:58:58.996Z,5.20
2019-01-26T23:05:36.632Z,5.27
2019-01-26T23:12:06.481Z,4.60
2019-01-26T23:18:27.174Z,4.43
2019-01-26T23:25:04.216Z,4.60
2019-01-26T23:31:17.870Z,4.77
2019-01-26T23:37:22.569Z,5.37
2019-01-26T23:43:29.077Z,4.10
2019-01-26T23:49:33.958Z,3.90
2019-01-26T23:55:38.576Z,4.03
